Terminal Aerodrome Forecast
Issued by NWS Louisville, KY

Home | Current Version | Previous Version | Text Only | Print | Product List | Glossary On
Versions: 1 2 3 4 5 6 7 8 9 10 11 12 13 14 15 16 17 18
000
FTUS43 KLMK 241700
TAFLEX
TAF
KLEX 241720Z 2418/2518 24021G35KT P6SM SCT025 BKN040
     FM241900 23019G28KT P6SM BKN025
     FM250000 24011KT P6SM BKN025
     FM250800 24008KT P6SM SCT035=

USA.gov is the U.S. government's official web portal to all federal, state and local government web resources and services.